AirNav   Everest Fuels
 
 299 users online  

6ND9 Skinningsrud Airport
Berthold, North Dakota, USA

GOING TO BERTHOLD?


FAA INFORMATION EFFECTIVE 18 JUNE 2020

Location

FAA Identifier: 6ND9
Lat/Long: 48-23-34.0570N 101-45-50.5840W
48-23.567617N 101-45.843067W
48.3927936,-101.7640511
(estimated)
Elevation: 2010 ft. / 613 m (estimated)
Variation: 11E (1985)
From city: 5 miles N of BERTHOLD, ND
Time zone: UTC -5 (UTC -6 during Standard Time)
Zip code: 58725

Airport Operations

Airport use: Private use. Permission required prior to landing
Activation date: 01/1980
Control tower: no
ARTCC: MINNEAPOLIS CENTER
FSS: GRAND FORKS FLIGHT SERVICE STATION
Attendance: UNATNDD
Wind indicator: yes
Segmented circle: no
Lights: FOR RWY LGTS PHONE 701-468-5934.

Nearby radio navigation aids

VOR radial/distance  VOR name  Freq  Var
MOTr280/20.6MINOT VOR/DME117.1013E

Airport Services

Airframe service: NONE
Powerplant service: NONE
Bottled oxygen: NONE
Bulk oxygen: NONE

Runway Information

Runway 11/29

Dimensions: 3100 x 75 ft. / 945 x 23 m
Surface: turf
Runway edge lights: low intensity
RUNWAY 11  RUNWAY 29
Traffic pattern: leftleft
Runway end identifier lights: nono

Airport Ownership and Management from official FAA records

Ownership: Privately-owned
Owner: OLIVER SKINNINGSRUD
BERTHOLD, ND 58718
Phone 701-468-5934
Manager: OLIVER SKINNINGSRUD
BERTHOLD, ND 58718
Phone 701-468-5934

Airport Operational Statistics

Aircraft based on the field: 2
Single engine airplanes: 2
    

Additional Remarks

FOR CD CTC MINNEAPOLIS ARTCC AT 651-463-5588.

Instrument Procedures

There are no published instrument procedures at 6ND9.

Some nearby airports with instrument procedures:

KMIB - Minot Air Force Base (16 nm E)
7K5 - Kenmare Municipal Airport (20 nm NW)
KMOT - Minot International Airport (21 nm SE)
KHBC - Mohall Municipal Airport (24 nm N)
08D - Stanley Municipal Airport (26 nm W)
 
Loc | Ops | Rwys | IFR | FBO | Links
Com | Nav | Svcs | Stats | Notes

Bismarck Aero Center
AirBoss

 
Area around 6ND9 (Skinningsrud Airport)
 
Road maps at: MapQuest Bing Google
 
Aerial photo
No photo
 
Sectional chart

 
Airport distance calculator
Flying to Skinningsrud Airport? Find the distance to fly.

From to 6ND9

Sunrise and sunset
Times for 14-Jul-2020
 Local
(UTC-5)
 Zulu
(UTC)
Morning civil twilight05:2310:23
Sunrise06:0311:03
Sunset21:4302:43
Evening civil twilight22:2303:23

Current date and time
Zulu (UTC)  14-Jul-2020 08:38:53
Local (UTC-5)  14-Jul-2020 03:38:53
 
METAR
KMIB 
17nm E 
140756Z AUTO 23005KT 10SM CLR 12/09 A2984 RMK AO2 SLP107 T01170087 $
KMOT 
22nm SE 
140754Z AUTO 22007KT 10SM CLR 13/09 A2986 RMK AO2 SLP106 T01330089
K08D 
26nm W 
140815Z AUTO 22006KT 10SM CLR 09/09 A2988 RMK AO2
TAF
KMIB 
17nm E 
140100Z 1401/1507 30012G18KT 9999 SCT040 QNH2973INS BECMG 1403/1404 28009KT 9999 FEW060 QNH2976INS BECMG 1412/1413 27015G25KT 9999 FEW100 QNH2989INS BECMG 1501/1502 24009KT 9999 FEW100 QNH2985INS TX25/1423Z TN10/1411Z
NOTAMs
Click for the latest NOTAMs
NOTAMs are issued by the DoD/FAA and will open in a separate window not controlled by AirNav.

 

 
 

Would you like to see your business listed on this page?

 If your business provides an interesting product or service to pilots, flight crews, aircraft, or users of the Skinningsrud Airport, you should consider listing it here.  To start the listing process, click on the button below
 
Add a business
 

Other Pages about Skinningsrud Airport

Update a link
 
Copyright © AirNav, LLC. All rights reserved. Privacy Policy  Contact